createdAt,value
2019-02-12T00:01:22.568Z,72.94
2019-02-12T00:06:25.005Z,72.81
2019-02-12T00:11:27.443Z,72.47
2019-02-12T00:16:29.875Z,72.45
2019-02-12T00:21:32.316Z,72.53
2019-02-12T00:26:34.750Z,72.48
2019-02-12T00:31:37.189Z,72.57
2019-02-12T00:36:39.620Z,72.62
2019-02-12T00:41:42.102Z,72.64
2019-02-12T00:46:44.554Z,72.48
2019-02-12T00:51:47.001Z,72.64
2019-02-12T00:56:49.433Z,72.54
2019-02-12T01:01:51.869Z,72.56
2019-02-12T01:06:54.296Z,72.68
2019-02-12T01:11:56.731Z,72.71
2019-02-12T01:16:59.173Z,73.33
2019-02-12T01:22:01.609Z,73.60
2019-02-12T01:27:04.044Z,73.39
2019-02-12T01:32:06.483Z,73.69
2019-02-12T01:37:08.918Z,73.79
2019-02-12T01:42:11.599Z,73.76
2019-02-12T01:47:14.051Z,73.83
2019-02-12T01:52:16.483Z,73.98
2019-02-12T01:57:18.919Z,73.77
2019-02-12T02:02:21.362Z,73.96
2019-02-12T02:07:23.790Z,73.80
2019-02-12T02:12:26.223Z,73.42
2019-02-12T02:17:28.656Z,73.79
2019-02-12T02:22:31.091Z,73.62
2019-02-12T02:27:33.536Z,73.47
2019-02-12T02:32:35.979Z,73.17
2019-02-12T02:37:38.416Z,73.38
2019-02-12T02:42:40.850Z,73.50
2019-02-12T02:47:43.283Z,73.19
2019-02-12T02:52:45.722Z,72.62
2019-02-12T02:57:48.192Z,72.57
2019-02-12T03:02:50.628Z,73.02
2019-02-12T03:07:53.074Z,73.44
2019-02-12T03:12:55.506Z,72.96
2019-02-12T03:17:57.954Z,73.13
2019-02-12T03:23:00.391Z,73.07
2019-02-12T03:28:02.843Z,73.54
2019-02-12T03:33:05.291Z,73.73
2019-02-12T03:38:07.708Z,73.82
2019-02-12T03:43:10.148Z,73.75
2019-02-12T03:48:12.599Z,73.65
2019-02-12T03:53:15.042Z,73.36
2019-02-12T03:58:17.471Z,73.21
2019-02-12T04:03:19.909Z,73.52
2019-02-12T04:08:22.348Z,73.47
2019-02-12T04:13:24.805Z,73.63
2019-02-12T04:18:27.255Z,73.52
2019-02-12T04:23:29.683Z,73.30
2019-02-12T04:28:32.135Z,73.30
2019-02-12T04:33:34.573Z,73.77
2019-02-12T04:38:37.004Z,74.16
2019-02-12T04:43:39.438Z,73.91
2019-02-12T04:48:41.876Z,73.79
2019-02-12T04:53:44.307Z,73.31
2019-02-12T04:58:46.754Z,73.20
2019-02-12T05:03:49.555Z,73.14
2019-02-12T05:09:09.417Z,72.93
2019-02-12T05:14:11.887Z,73.22
2019-02-12T05:19:14.345Z,73.17
2019-02-12T05:24:16.778Z,73.28
2019-02-12T05:29:19.210Z,73.27
2019-02-12T05:34:21.641Z,73.29
2019-02-12T05:39:24.070Z,73.51
2019-02-12T05:44:26.520Z,73.82
2019-02-12T05:49:28.960Z,74.38
2019-02-12T05:54:31.403Z,73.94
2019-02-12T05:59:33.823Z,73.76
2019-02-12T06:04:36.280Z,74.29
2019-02-12T06:09:38.732Z,74.54
2019-02-12T06:14:41.166Z,74.84
2019-02-12T06:19:43.606Z,75.32
2019-02-12T06:24:46.094Z,74.92
2019-02-12T06:29:48.535Z,74.50
2019-02-12T06:34:50.979Z,74.27
2019-02-12T06:39:53.435Z,74.24
2019-02-12T06:44:55.876Z,74.23
2019-02-12T06:49:58.481Z,74.68
2019-02-12T06:55:00.936Z,74.85
2019-02-12T07:00:03.366Z,75.02
2019-02-12T07:05:05.805Z,75.17
2019-02-12T07:10:08.326Z,74.44
2019-02-12T07:15:10.708Z,73.81
2019-02-12T07:20:22.055Z,73.82
2019-02-12T07:25:52.326Z,73.39
2019-02-12T07:30:57.620Z,73.91
2019-02-12T07:36:24.214Z,73.51
2019-02-12T07:41:41.713Z,73.54
2019-02-12T07:47:11.458Z,73.48
2019-02-12T07:52:25.952Z,73.33
2019-02-12T07:57:55.815Z,72.50
2019-02-12T08:03:19.814Z,71.98
2019-02-12T08:08:28.394Z,72.17
2019-02-12T08:13:49.284Z,72.06
2019-02-12T08:19:15.588Z,71.36
2019-02-12T08:24:30.093Z,70.67
2019-02-12T08:29:35.264Z,70.52
2019-02-12T08:34:46.575Z,70.35
2019-02-12T08:39:57.970Z,69.85
2019-02-12T08:45:19.203Z,69.92
2019-02-12T08:50:46.082Z,69.79
2019-02-12T08:55:48.513Z,69.52
2019-02-12T09:00:50.962Z,68.80
2019-02-12T09:06:14.560Z,67.63
2019-02-12T09:11:17.007Z,67.42
2019-02-12T09:16:19.506Z,67.76
2019-02-12T09:21:46.616Z,68.38
2019-02-12T09:27:07.676Z,68.67
2019-02-12T09:32:43.839Z,67.59
2019-02-12T09:38:07.413Z,66.19
2019-02-12T09:43:34.268Z,63.47
2019-02-12T09:49:01.202Z,62.23
2019-02-12T09:54:15.583Z,60.06
2019-02-12T09:59:18.073Z,57.51
2019-02-12T10:04:32.251Z,54.95
2019-02-12T10:09:43.805Z,57.08
2019-02-12T10:14:54.932Z,56.99
2019-02-12T10:20:15.764Z,56.99
2019-02-12T10:25:18.214Z,56.04
2019-02-12T10:30:29.655Z,54.70
2019-02-12T10:35:32.089Z,54.99
2019-02-12T10:40:34.542Z,54.27
2019-02-12T10:45:36.988Z,54.42
2019-02-12T10:50:39.489Z,53.61
2019-02-12T10:55:41.928Z,52.66
2019-02-12T11:00:44.370Z,52.32
2019-02-12T11:05:46.818Z,52.12
2019-02-12T11:10:49.266Z,55.18
2019-02-12T11:15:51.703Z,56.18
2019-02-12T11:20:54.268Z,55.82
2019-02-12T11:25:56.706Z,55.17
2019-02-12T11:30:59.135Z,55.95
2019-02-12T11:36:01.601Z,55.56
2019-02-12T11:41:04.062Z,55.69
2019-02-12T11:46:06.508Z,55.60
2019-02-12T11:51:08.961Z,54.73
2019-02-12T11:56:11.391Z,54.94
2019-02-12T12:01:13.830Z,54.36
2019-02-12T12:06:16.271Z,53.44
2019-02-12T12:11:18.706Z,51.80
2019-02-12T12:16:21.160Z,51.29
2019-02-12T12:21:23.598Z,50.28
2019-02-12T12:26:26.064Z,51.81
2019-02-12T12:31:28.543Z,51.30
2019-02-12T12:36:30.994Z,50.74
2019-02-12T12:41:33.429Z,50.53
2019-02-12T12:46:35.879Z,49.59
2019-02-12T12:51:38.318Z,49.11
2019-02-12T12:56:40.762Z,47.84
2019-02-12T13:01:43.198Z,48.89
2019-02-12T13:06:45.647Z,47.81
2019-02-12T13:11:48.092Z,47.16
2019-02-12T13:16:50.532Z,46.97
2019-02-12T13:21:52.983Z,46.41
2019-02-12T13:26:55.422Z,47.40
2019-02-12T13:31:57.871Z,47.68
2019-02-12T13:37:00.340Z,47.29
2019-02-12T13:42:02.977Z,48.34
2019-02-12T13:47:05.415Z,48.99
2019-02-12T13:52:07.857Z,48.50
2019-02-12T13:57:10.303Z,48.83
2019-02-12T14:02:12.743Z,47.61
2019-02-12T14:07:15.198Z,49.13
2019-02-12T14:12:17.655Z,49.88
2019-02-12T14:17:20.083Z,50.22
2019-02-12T14:22:22.527Z,50.78
2019-02-12T14:27:24.978Z,50.29
2019-02-12T14:32:27.422Z,50.17
2019-02-12T14:37:29.863Z,50.40
2019-02-12T14:42:32.296Z,50.66
2019-02-12T14:47:34.732Z,50.29
2019-02-12T14:52:37.169Z,50.26
2019-02-12T14:57:39.609Z,50.10
2019-02-12T15:02:42.054Z,49.58
2019-02-12T15:07:44.496Z,49.72
2019-02-12T15:12:46.941Z,49.43
2019-02-12T15:17:49.382Z,49.63
2019-02-12T15:22:51.827Z,49.56
2019-02-12T15:27:54.303Z,49.36
2019-02-12T15:32:56.737Z,49.03
2019-02-12T15:37:59.177Z,49.63
2019-02-12T15:43:01.627Z,50.05
2019-02-12T15:48:04.537Z,50.60
2019-02-12T15:53:06.966Z,50.74
2019-02-12T15:58:09.751Z,51.04
2019-02-12T16:03:12.187Z,51.27
2019-02-12T16:08:14.715Z,52.02
2019-02-12T16:13:17.168Z,52.32
2019-02-12T16:18:21.403Z,52.67
2019-02-12T16:23:22.083Z,53.18
2019-02-12T16:28:24.520Z,53.64
2019-02-12T16:33:26.979Z,54.21
2019-02-12T16:38:29.431Z,54.70
2019-02-12T16:43:31.872Z,55.35
2019-02-12T16:48:36.147Z,55.66
2019-02-12T16:53:36.776Z,56.07
2019-02-12T16:58:39.294Z,56.37
2019-02-12T17:03:41.813Z,56.66
2019-02-12T17:08:44.354Z,56.46
2019-02-12T17:13:46.804Z,56.87
2019-02-12T17:18:49.246Z,57.12
2019-02-12T17:23:51.710Z,57.08
2019-02-12T17:28:54.304Z,57.33
2019-02-12T17:33:56.748Z,57.74
2019-02-12T17:38:59.197Z,57.88
2019-02-12T17:44:01.669Z,57.82
2019-02-12T17:49:04.182Z,57.90
2019-02-12T17:54:06.693Z,58.40
2019-02-12T17:59:09.165Z,58.46
2019-02-12T18:04:11.635Z,58.95
2019-02-12T18:09:14.071Z,59.00
2019-02-12T18:14:16.515Z,58.90
2019-02-12T18:19:18.953Z,59.25
2019-02-12T18:24:22.562Z,59.17
2019-02-12T18:29:25.007Z,59.62
2019-02-12T18:34:27.550Z,59.74
2019-02-12T18:39:30.009Z,59.70
2019-02-12T18:44:32.455Z,60.19
2019-02-12T18:49:34.914Z,60.00
2019-02-12T18:54:37.364Z,60.39
2019-02-12T18:59:39.801Z,60.40
2019-02-12T19:04:42.259Z,60.51
2019-02-12T19:09:44.736Z,60.58
2019-02-12T19:14:47.570Z,60.68
2019-02-12T19:19:50.060Z,60.95
2019-02-12T19:24:52.511Z,61.27
2019-02-12T19:29:54.959Z,61.47
2019-02-12T19:34:57.419Z,61.37
2019-02-12T19:39:59.860Z,61.45
2019-02-12T19:45:02.313Z,61.60
2019-02-12T19:50:04.751Z,62.15
2019-02-12T19:55:10.126Z,62.11
2019-02-12T20:00:15.594Z,62.49
2019-02-12T20:05:18.051Z,62.63
2019-02-12T20:10:20.515Z,62.73
2019-02-12T20:15:22.993Z,62.77
2019-02-12T20:20:25.454Z,63.01
2019-02-12T20:25:27.913Z,63.36
2019-02-12T20:30:30.381Z,63.72
2019-02-12T20:35:36.449Z,63.95
2019-02-12T20:40:35.538Z,64.53
2019-02-12T20:45:38.040Z,64.60
2019-02-12T20:50:40.520Z,64.73
2019-02-12T20:55:42.968Z,64.94
2019-02-12T21:00:45.424Z,65.41
2019-02-12T21:05:47.881Z,65.81
2019-02-12T21:10:50.605Z,66.01
2019-02-12T21:15:53.060Z,65.83
2019-02-12T21:20:55.519Z,66.18
2019-02-12T21:25:57.990Z,66.29
2019-02-12T21:31:00.418Z,66.44
2019-02-12T21:36:06.267Z,66.42
2019-02-12T21:41:08.724Z,66.90
2019-02-12T21:46:11.178Z,66.94
2019-02-12T21:51:13.640Z,66.72
2019-02-12T21:56:16.075Z,66.92
2019-02-12T22:01:18.567Z,67.23
2019-02-12T22:06:21.009Z,67.47
2019-02-12T22:11:23.445Z,67.47
2019-02-12T22:16:25.896Z,68.01
2019-02-12T22:21:28.338Z,67.91
2019-02-12T22:26:30.792Z,68.05
2019-02-12T22:31:33.229Z,68.26
2019-02-12T22:36:35.671Z,68.06
2019-02-12T22:41:38.102Z,67.87
2019-02-12T22:46:40.547Z,68.34
2019-02-12T22:51:43.016Z,68.77
2019-02-12T22:56:45.452Z,68.99
2019-02-12T23:01:47.889Z,68.95
2019-02-12T23:06:50.332Z,69.03
2019-02-12T23:11:52.781Z,69.03
2019-02-12T23:16:55.237Z,69.17
2019-02-12T23:21:57.687Z,69.05
2019-02-12T23:27:00.129Z,69.20
2019-02-12T23:32:02.555Z,69.69
2019-02-12T23:37:05.002Z,69.68
2019-02-12T23:42:07.449Z,69.91
2019-02-12T23:47:09.897Z,69.83
2019-02-12T23:52:12.334Z,69.83
2019-02-12T23:57:14.778Z,69.75
